createdAt,value
2019-01-08T00:00:34.338Z,8.93
2019-01-08T00:03:05.214Z,9.03
2019-01-08T00:05:37.073Z,10.35
2019-01-08T00:08:07.897Z,9.80
2019-01-08T00:10:39.837Z,8.48
2019-01-08T00:13:10.868Z,8.78
2019-01-08T00:15:45.521Z,9.33
2019-01-08T00:18:16.399Z,8.75
2019-01-08T00:20:47.228Z,8.70
2019-01-08T00:23:17.908Z,9.15
2019-01-08T00:25:48.958Z,7.75
2019-01-08T00:28:19.778Z,9.15
2019-01-08T00:30:50.084Z,7.67
2019-01-08T00:33:20.818Z,8.85
2019-01-08T00:35:51.537Z,7.78
2019-01-08T00:38:21.843Z,7.90
2019-01-08T00:40:52.858Z,7.42
2019-01-08T00:43:23.491Z,8.88
2019-01-08T00:45:53.834Z,7.70
2019-01-08T00:48:24.955Z,7.85
2019-01-08T00:50:55.498Z,7.42
2019-01-08T00:53:26.272Z,7.45
2019-01-08T00:55:56.597Z,6.58
2019-01-08T00:58:27.365Z,7.03
2019-01-08T01:00:59.085Z,7.55
2019-01-08T01:03:29.857Z,6.12
2019-01-08T01:06:00.406Z,7.45
2019-01-08T01:08:30.817Z,7.08
2019-01-08T01:11:01.161Z,6.22
2019-01-08T01:13:31.561Z,7.55
2019-01-08T01:16:02.943Z,6.17
2019-01-08T01:18:33.431Z,5.90
2019-01-08T01:21:04.146Z,6.35
2019-01-08T01:23:34.722Z,5.95
2019-01-08T01:26:06.323Z,5.70
2019-01-08T01:28:37.516Z,6.05
2019-01-08T01:31:08.105Z,7.28
2019-01-08T01:33:39.357Z,5.40
2019-01-08T01:36:10.464Z,5.60
2019-01-08T01:38:42.924Z,5.47
2019-01-08T01:41:13.946Z,6.22
2019-01-08T01:43:44.599Z,5.25
2019-01-08T01:46:15.527Z,6.10
2019-01-08T01:48:46.317Z,5.37
2019-01-08T01:51:16.771Z,5.75
2019-01-08T01:53:47.587Z,6.40
2019-01-08T01:56:18.936Z,5.92
2019-01-08T02:20:33.678Z,5.85
2019-01-08T02:35:55.369Z,5.50
2019-01-08T02:46:53.257Z,5.33
2019-01-08T02:49:25.397Z,4.37
2019-01-08T02:52:05.282Z,4.45
2019-01-08T02:54:40.447Z,4.33
2019-01-08T02:57:16.166Z,3.17
2019-01-08T02:59:58.299Z,3.35
2019-01-08T03:02:35.183Z,2.67
2019-01-08T03:05:25.991Z,3.35
2019-01-08T03:07:58.466Z,2.42
2019-01-08T03:10:44.151Z,2.77
2019-01-08T03:13:32.593Z,2.55
2019-01-08T03:16:35.953Z,3.60
2019-01-08T03:19:18.269Z,2.58
2019-01-08T03:21:49.732Z,2.30
2019-01-08T03:24:23.189Z,2.20
2019-01-08T03:26:59.826Z,2.52
2019-01-08T03:29:38.585Z,2.25
2019-01-08T03:32:09.443Z,2.30
2019-01-08T03:34:46.450Z,2.15
2019-01-08T03:37:43.267Z,2.50
2019-01-08T03:40:37.221Z,2.37
2019-01-08T03:44:07.127Z,2.12
2019-01-08T03:46:57.735Z,1.60
2019-01-08T03:50:38.177Z,1.70
2019-01-08T03:57:12.451Z,1.55
2019-01-08T04:00:44.275Z,1.50
2019-01-08T04:03:46.166Z,1.30
2019-01-08T04:06:25.349Z,1.60
2019-01-08T04:09:12.751Z,1.10
2019-01-08T04:11:57.446Z,1.00
2019-01-08T04:14:34.623Z,1.30
2019-01-08T04:17:22.759Z,1.27
2019-01-08T04:20:02.325Z,1.40
2019-01-08T04:22:38.520Z,1.40
2019-01-08T04:29:07.070Z,1.40
2019-01-08T04:34:54.427Z,1.15
2019-01-08T04:38:02.305Z,1.05
2019-01-08T04:40:40.846Z,1.07
2019-01-08T04:43:37.303Z,1.12
2019-01-08T04:46:37.284Z,1.47
2019-01-08T04:49:45.278Z,1.30
2019-01-08T04:52:44.074Z,1.22
2019-01-08T04:56:10.023Z,1.30
2019-01-08T04:59:58.738Z,1.15
2019-01-08T05:02:44.324Z,1.47
2019-01-08T05:06:40.007Z,1.30
2019-01-08T05:10:50.334Z,1.30
2019-01-08T05:13:08.775Z,1.70
2019-01-08T05:16:48.631Z,1.60
2019-01-08T05:19:10.570Z,1.80
2019-01-08T05:21:47.637Z,1.57
2019-01-08T05:24:29.823Z,1.52
2019-01-08T05:27:19.898Z,1.80
2019-01-08T05:29:51.206Z,1.70
2019-01-08T05:33:08.071Z,1.75
2019-01-08T05:35:42.344Z,1.40
2019-01-08T05:38:56.860Z,1.30
2019-01-08T05:41:40.542Z,2.02
2019-01-08T05:44:34.519Z,1.87
2019-01-08T05:47:06.680Z,1.60
2019-01-08T05:50:16.022Z,1.45
2019-01-08T05:56:03.984Z,1.60
2019-01-08T05:58:37.119Z,1.42
2019-01-08T06:01:13.425Z,1.70
2019-01-08T06:03:43.316Z,1.42
2019-01-08T06:06:13.247Z,1.57
2019-01-08T06:08:43.213Z,2.00
2019-01-08T06:11:12.999Z,1.85
2019-01-08T06:13:42.799Z,1.72
2019-01-08T06:16:12.685Z,1.50
2019-01-08T06:18:42.886Z,1.30
2019-01-08T06:21:16.144Z,1.62
2019-01-08T06:23:49.009Z,2.00
2019-01-08T06:26:19.112Z,2.00
2019-01-08T06:28:49.506Z,1.87
2019-01-08T06:31:22.730Z,2.00
2019-01-08T06:34:02.345Z,2.00
2019-01-08T06:36:36.813Z,0.93
2019-01-08T06:39:07.100Z,1.70
2019-01-08T06:41:38.902Z,1.45
2019-01-08T06:44:08.819Z,1.95
2019-01-08T06:46:44.285Z,1.87
2019-01-08T06:49:14.383Z,1.85
2019-01-08T06:51:44.370Z,1.90
2019-01-08T06:54:14.206Z,2.00
2019-01-08T06:56:44.155Z,1.35
2019-01-08T06:59:14.254Z,1.72
2019-01-08T07:01:44.291Z,1.50
2019-01-08T07:04:17.053Z,1.72
2019-01-08T07:06:50.228Z,1.82
2019-01-08T07:10:09.813Z,1.20
2019-01-08T07:12:39.901Z,1.25
2019-01-08T07:15:10.043Z,1.60
2019-01-08T07:17:39.989Z,2.17
2019-01-08T07:20:09.852Z,1.75
2019-01-08T07:22:39.867Z,1.45
2019-01-08T07:25:09.915Z,1.60
2019-01-08T07:27:40.248Z,1.82
2019-01-08T07:30:11.197Z,2.55
2019-01-08T07:32:41.617Z,2.90
2019-01-08T07:35:13.152Z,1.70
2019-01-08T07:37:43.918Z,1.60
2019-01-08T07:40:44.149Z,1.75
2019-01-08T07:43:13.138Z,1.60
2019-01-08T07:46:00.572Z,1.80
2019-01-08T07:48:58.090Z,1.85
2019-01-08T07:51:31.153Z,2.58
2019-01-08T08:45:06.133Z,2.22
2019-01-08T08:47:36.011Z,2.15
2019-01-08T08:50:06.246Z,1.80
2019-01-08T08:52:36.185Z,1.90
2019-01-08T08:55:06.088Z,1.82
2019-01-08T08:57:36.155Z,2.27
2019-01-08T09:00:10.393Z,2.50
2019-01-08T09:02:40.515Z,2.92
2019-01-08T09:05:10.917Z,3.00
2019-01-08T09:07:44.148Z,2.75
2019-01-08T09:10:16.924Z,2.20
2019-01-08T09:12:47.753Z,2.42
2019-01-08T09:15:22.792Z,2.25
2019-01-08T09:17:55.761Z,1.90
2019-01-08T09:20:26.133Z,2.42
2019-01-08T09:22:58.918Z,2.75
2019-01-08T09:25:29.344Z,2.37
2019-01-08T09:27:59.895Z,2.92
2019-01-08T09:30:30.463Z,2.72
2019-01-08T09:33:01.198Z,3.08
2019-01-08T09:35:31.879Z,2.40
2019-01-08T09:38:05.465Z,2.25
2019-01-08T09:41:06.990Z,2.50
2019-01-08T09:43:37.862Z,2.35
2019-01-08T09:46:08.971Z,2.90
2019-01-08T09:48:40.528Z,1.92
2019-01-08T09:51:10.930Z,2.50
2019-01-08T09:53:44.854Z,2.45
2019-01-08T09:56:24.334Z,3.30
2019-01-08T09:58:58.428Z,2.77
2019-01-08T10:01:29.117Z,3.90
2019-01-08T10:04:27.841Z,2.50
2019-01-08T10:09:40.897Z,3.33
2019-01-08T10:12:13.905Z,2.52
2019-01-08T10:14:43.706Z,2.98
2019-01-08T10:17:13.973Z,3.17
2019-01-08T10:19:43.924Z,2.98
2019-01-08T10:22:13.829Z,3.27
2019-01-08T10:24:44.045Z,3.08
2019-01-08T10:27:14.321Z,3.50
2019-01-08T10:29:44.459Z,3.30
2019-01-08T10:32:16.727Z,3.52
2019-01-08T10:34:46.700Z,3.30
2019-01-08T10:37:16.875Z,2.83
2019-01-08T10:39:46.869Z,2.90
2019-01-08T10:42:16.823Z,2.87
2019-01-08T10:44:50.252Z,2.65
2019-01-08T10:47:20.258Z,2.65
2019-01-08T10:49:50.369Z,2.50
2019-01-08T10:52:20.319Z,2.20
2019-01-08T10:54:54.445Z,2.30
2019-01-08T10:57:24.658Z,2.72
2019-01-08T10:59:57.493Z,3.25
2019-01-08T11:02:28.155Z,2.37
2019-01-08T11:04:58.588Z,2.08
2019-01-08T11:07:35.772Z,3.10
2019-01-08T11:10:07.936Z,2.80
2019-01-08T11:12:39.263Z,2.12
2019-01-08T11:15:10.878Z,2.83
2019-01-08T11:17:41.403Z,2.52
2019-01-08T11:20:12.265Z,2.20
2019-01-08T11:22:43.178Z,2.30
2019-01-08T11:25:14.105Z,2.50
2019-01-08T11:27:44.424Z,2.08
2019-01-08T11:30:15.963Z,3.30
2019-01-08T11:32:49.444Z,2.55
2019-01-08T11:35:23.073Z,2.52
2019-01-08T11:37:54.821Z,3.37
2019-01-08T11:40:25.954Z,2.25
2019-01-08T11:43:02.474Z,2.52
2019-01-08T11:45:34.408Z,2.10
2019-01-08T11:48:10.565Z,2.08
2019-01-08T11:50:41.777Z,2.67
2019-01-08T11:53:16.797Z,2.60
2019-01-08T11:55:50.636Z,2.05
2019-01-08T11:58:22.501Z,2.05
2019-01-08T12:00:56.009Z,2.77
2019-01-08T12:03:26.477Z,3.02
2019-01-08T12:05:59.613Z,2.00
2019-01-08T12:08:34.789Z,2.80
2019-01-08T12:11:05.358Z,1.85
2019-01-08T12:14:06.300Z,2.10
2019-01-08T12:16:42.521Z,2.27
2019-01-08T12:19:14.423Z,1.60
2019-01-08T12:21:47.755Z,2.50
2019-01-08T12:24:19.536Z,2.65
2019-01-08T12:26:50.685Z,2.00
2019-01-08T12:29:37.114Z,2.20
2019-01-08T12:32:58.800Z,1.82
2019-01-08T12:35:32.715Z,1.60
2019-01-08T12:38:03.607Z,2.60
2019-01-08T12:40:37.463Z,1.50
2019-01-08T12:43:09.582Z,2.30
2019-01-08T12:45:43.830Z,2.35
2019-01-08T12:48:48.598Z,1.95
2019-01-08T12:51:21.199Z,2.20
2019-01-08T12:57:52.868Z,2.10
2019-01-08T13:00:23.682Z,1.85
2019-01-08T13:07:52.080Z,2.42
2019-01-08T13:10:59.508Z,1.60
2019-01-08T13:13:52.714Z,2.22
2019-01-08T13:16:57.533Z,2.37
2019-01-08T13:46:36.716Z,2.15
2019-01-08T13:49:07.862Z,2.45
2019-01-08T13:51:38.332Z,2.83
2019-01-08T13:54:09.623Z,2.45
2019-01-08T13:56:39.635Z,2.40
2019-01-08T13:59:11.388Z,2.55
2019-01-08T14:01:45.698Z,2.25
2019-01-08T14:04:25.407Z,3.27
2019-01-08T14:07:05.485Z,2.15
2019-01-08T14:09:38.459Z,2.25
2019-01-08T14:12:35.686Z,2.25
2019-01-08T14:15:07.733Z,2.15
2019-01-08T14:18:14.298Z,2.70
2019-01-08T14:20:51.625Z,2.05
2019-01-08T14:23:27.427Z,2.15
2019-01-08T14:26:21.673Z,1.90
2019-01-08T14:29:05.733Z,1.87
2019-01-08T14:31:36.241Z,2.62
2019-01-08T14:34:06.616Z,1.90
2019-01-08T14:36:37.050Z,2.87
2019-01-08T14:39:24.398Z,3.20
2019-01-08T14:41:54.757Z,2.20
2019-01-08T14:44:28.984Z,2.35
2019-01-08T14:46:59.728Z,3.08
2019-01-08T14:49:30.224Z,2.30
2019-01-08T14:52:00.584Z,2.40
2019-01-08T14:54:30.970Z,2.00
2019-01-08T14:57:04.445Z,2.10
2019-01-08T14:59:40.316Z,2.33
2019-01-08T15:02:11.547Z,2.25
2019-01-08T15:04:41.871Z,1.80
2019-01-08T15:07:13.880Z,2.05
2019-01-08T15:09:44.420Z,2.08
2019-01-08T15:12:21.063Z,2.12
2019-01-08T15:14:56.431Z,2.00
2019-01-08T15:17:32.899Z,1.80
2019-01-08T15:20:36.549Z,2.40
2019-01-08T15:23:07.366Z,2.00
2019-01-08T15:25:39.815Z,1.90
2019-01-08T15:28:12.995Z,2.00
2019-01-08T15:30:51.305Z,2.02
2019-01-08T15:33:26.328Z,2.00
2019-01-08T15:35:54.504Z,1.72
2019-01-08T15:38:25.058Z,2.00
2019-01-08T15:40:55.577Z,2.12
2019-01-08T15:43:25.929Z,2.05
2019-01-08T15:45:56.635Z,2.45
2019-01-08T15:48:27.295Z,2.37
2019-01-08T15:50:58.164Z,2.92
2019-01-08T15:53:28.511Z,2.35
2019-01-08T15:55:59.405Z,2.35
2019-01-08T15:58:29.723Z,2.47
2019-01-08T16:01:00.719Z,2.52
2019-01-08T16:03:31.126Z,2.27
2019-01-08T16:06:01.300Z,2.85
2019-01-08T16:08:39.031Z,2.87
2019-01-08T16:11:10.318Z,2.77
2019-01-08T16:13:44.520Z,1.90
2019-01-08T16:16:18.004Z,2.80
2019-01-08T16:18:48.145Z,3.87
2019-01-08T16:21:21.814Z,2.60
2019-01-08T16:23:58.341Z,2.65
2019-01-08T16:26:47.318Z,3.08
2019-01-08T16:29:18.966Z,2.40
2019-01-08T16:31:51.399Z,2.10
2019-01-08T16:38:15.056Z,2.22
2019-01-08T16:40:45.799Z,2.10
2019-01-08T16:43:26.288Z,2.12
2019-01-08T16:46:06.172Z,2.50
2019-01-08T16:48:55.120Z,2.00
2019-01-08T16:51:42.396Z,2.80
2019-01-08T16:54:18.687Z,2.65
2019-01-08T16:56:55.560Z,3.00
2019-01-08T16:59:28.090Z,2.05
2019-01-08T17:02:02.962Z,2.60
2019-01-08T17:04:34.169Z,2.10
2019-01-08T17:07:04.773Z,2.25
2019-01-08T17:09:36.309Z,2.20
2019-01-08T17:12:17.756Z,2.10
2019-01-08T17:14:53.397Z,2.25
2019-01-08T17:17:24.206Z,1.90
2019-01-08T17:20:12.876Z,2.20
2019-01-08T17:22:45.843Z,3.00
2019-01-08T17:25:17.752Z,2.60
2019-01-08T17:27:52.207Z,2.20
2019-01-08T17:30:34.710Z,2.40
2019-01-08T17:33:13.281Z,2.30
2019-01-08T17:36:00.223Z,1.85
2019-01-08T17:41:30.653Z,4.00
2019-01-08T17:47:07.096Z,2.60
2019-01-08T17:49:47.670Z,2.20
2019-01-08T17:52:14.418Z,2.60
2019-01-08T17:54:45.072Z,2.12
2019-01-08T17:57:18.740Z,2.25
2019-01-08T17:59:49.487Z,2.37
2019-01-08T18:02:24.605Z,2.50
2019-01-08T18:04:55.036Z,2.25
2019-01-08T18:07:25.672Z,2.00
2019-01-08T18:10:12.112Z,2.35
2019-01-08T18:12:42.646Z,2.80
2019-01-08T18:15:12.995Z,2.10
2019-01-08T18:17:44.519Z,2.80
2019-01-08T18:20:16.527Z,2.00
2019-01-08T18:22:49.577Z,1.95
2019-01-08T18:25:20.335Z,2.00
2019-01-08T18:27:53.353Z,1.80
2019-01-08T18:30:25.958Z,1.77
2019-01-08T18:32:56.519Z,1.90
2019-01-08T18:35:26.758Z,2.30
2019-01-08T18:37:56.802Z,2.95
2019-01-08T18:40:27.328Z,1.80
2019-01-08T18:42:59.649Z,2.08
2019-01-08T18:45:31.374Z,2.02
2019-01-08T18:48:01.656Z,2.50
2019-01-08T18:50:36.975Z,1.77
2019-01-08T18:53:07.982Z,3.15
2019-01-08T18:55:39.229Z,2.50
2019-01-08T18:58:17.547Z,2.77
2019-01-08T19:00:47.915Z,2.30
2019-01-08T19:03:20.378Z,2.40
2019-01-08T19:05:50.495Z,2.72
2019-01-08T19:08:20.771Z,2.08
2019-01-08T19:10:51.797Z,2.22
2019-01-08T19:13:22.267Z,1.87
2019-01-08T19:15:52.357Z,2.42
2019-01-08T19:21:23.391Z,1.87
2019-01-08T19:24:11.576Z,2.70
2019-01-08T19:26:42.830Z,2.30
2019-01-08T19:29:15.759Z,2.80
2019-01-08T19:31:47.804Z,1.90
2019-01-08T19:34:19.088Z,1.90
2019-01-08T19:36:49.679Z,2.00
2019-01-08T19:39:23.784Z,3.60
2019-01-08T19:42:47.660Z,2.00
2019-01-08T19:46:51.730Z,1.40
2019-01-08T19:50:07.427Z,2.08
2019-01-08T20:00:44.303Z,1.95
2019-01-08T20:05:42.548Z,1.72
2019-01-08T20:08:19.584Z,2.00
2019-01-08T20:10:52.436Z,1.95
2019-01-08T20:13:25.595Z,2.98
2019-01-08T20:15:59.701Z,2.30
2019-01-08T20:18:32.527Z,1.90
2019-01-08T20:21:02.961Z,2.15
2019-01-08T20:23:37.396Z,3.20
2019-01-08T20:26:08.101Z,2.10
2019-01-08T20:28:38.340Z,2.35
2019-01-08T20:31:08.722Z,2.30
2019-01-08T20:33:39.839Z,2.00
2019-01-08T20:36:10.906Z,2.60
2019-01-08T20:38:41.947Z,2.30
2019-01-08T20:41:13.996Z,2.67
2019-01-08T20:43:44.882Z,2.30
2019-01-08T20:46:22.414Z,2.08
2019-01-08T20:48:53.135Z,1.70
2019-01-08T20:51:23.226Z,2.42
2019-01-08T20:53:53.326Z,2.55
2019-01-08T20:56:23.406Z,2.12
2019-01-08T20:58:53.539Z,2.55
2019-01-08T21:01:23.516Z,1.82
2019-01-08T21:03:53.627Z,2.05
2019-01-08T21:06:24.759Z,1.90
2019-01-08T21:08:55.417Z,2.45
2019-01-08T21:11:25.779Z,1.95
2019-01-08T21:13:56.013Z,1.67
2019-01-08T21:16:25.901Z,2.25
2019-01-08T21:18:55.938Z,1.50
2019-01-08T21:21:25.910Z,1.40
2019-01-08T21:23:56.478Z,1.80
2019-01-08T21:26:26.739Z,1.70
2019-01-08T21:28:57.647Z,1.70
2019-01-08T21:31:29.665Z,1.70
2019-01-08T21:34:01.592Z,2.40
2019-01-08T21:36:31.745Z,1.70
2019-01-08T21:39:12.413Z,1.70
2019-01-08T21:41:43.665Z,1.62
2019-01-08T21:44:18.742Z,1.60
2019-01-08T21:46:49.201Z,3.00
2019-01-08T21:49:19.437Z,1.12
2019-01-08T21:51:50.101Z,2.17
2019-01-08T21:54:20.813Z,2.35
2019-01-08T21:56:52.017Z,1.72
2019-01-08T21:59:22.029Z,1.65
2019-01-08T22:01:52.259Z,2.02
2019-01-08T22:04:22.232Z,1.72
2019-01-08T22:06:52.262Z,2.20
2019-01-08T22:09:22.416Z,1.90
2019-01-08T22:11:52.454Z,2.22
2019-01-08T22:14:22.357Z,1.90
2019-01-08T22:16:52.926Z,1.70
2019-01-08T22:19:22.908Z,1.87
2019-01-08T22:21:52.856Z,1.42
2019-01-08T22:24:31.626Z,2.47
2019-01-08T22:27:02.593Z,2.12
2019-01-08T22:29:35.165Z,1.40
2019-01-08T22:32:07.759Z,1.40
2019-01-08T22:34:42.192Z,1.42
2019-01-08T22:37:12.798Z,1.80
2019-01-08T22:39:47.094Z,1.77
2019-01-08T22:42:17.845Z,1.70
2019-01-08T22:44:47.819Z,2.30
2019-01-08T22:47:18.023Z,2.00
2019-01-08T22:49:47.860Z,1.70
2019-01-08T22:52:17.802Z,1.98
2019-01-08T22:54:47.855Z,1.85
2019-01-08T22:57:17.924Z,1.20
2019-01-08T22:59:47.759Z,2.15
2019-01-08T23:02:17.716Z,1.25
2019-01-08T23:04:47.906Z,1.55
2019-01-08T23:07:17.875Z,2.08
2019-01-08T23:09:47.703Z,1.65
2019-01-08T23:12:17.646Z,1.50
2019-01-08T23:14:49.109Z,1.95
2019-01-08T23:17:18.920Z,2.27
2019-01-08T23:19:48.896Z,1.67
2019-01-08T23:22:18.834Z,1.50
2019-01-08T23:24:48.929Z,1.70
2019-01-08T23:27:18.759Z,2.25
2019-01-08T23:29:48.839Z,1.80
2019-01-08T23:32:18.686Z,1.75
2019-01-08T23:34:50.026Z,1.35
2019-01-08T23:37:19.922Z,2.17
2019-01-08T23:39:49.981Z,1.70
2019-01-08T23:42:19.787Z,2.05
2019-01-08T23:44:49.719Z,1.70
2019-01-08T23:47:19.524Z,1.82
2019-01-08T23:49:50.258Z,2.40
2019-01-08T23:52:33.016Z,2.25
2019-01-08T23:55:04.604Z,2.47
2019-01-08T23:57:36.446Z,1.40
